sensor_id;sensor_type;location;lat;lon;timestamp;temperature;humidity
12419;DHT22;6273;52.312;9.178;2022-07-29T00:02:17;17.60;99.90
12419;DHT22;6273;52.312;9.178;2022-07-29T00:04:43;17.60;99.90
12419;DHT22;6273;52.312;9.178;2022-07-29T00:07:09;17.60;99.90
12419;DHT22;6273;52.312;9.178;2022-07-29T00:09:34;17.60;99.90
12419;DHT22;6273;52.312;9.178;2022-07-29T00:12:01;17.70;99.90
12419;DHT22;6273;52.312;9.178;2022-07-29T00:14:27;17.60;99.90
12419;DHT22;6273;52.312;9.178;2022-07-29T00:16:53;17.60;99.90
12419;DHT22;6273;52.312;9.178;2022-07-29T00:19:18;17.60;99.90
12419;DHT22;6273;52.312;9.178;2022-07-29T00:21:44;17.70;99.90
12419;DHT22;6273;52.312;9.178;2022-07-29T00:24:09;17.60;99.90
12419;DHT22;6273;52.312;9.178;2022-07-29T00:26:35;17.70;99.90
12419;DHT22;6273;52.312;9.178;2022-07-29T00:29:02;17.70;99.90
12419;DHT22;6273;52.312;9.178;2022-07-29T00:31:28;17.60;99.90
12419;DHT22;6273;52.312;9.178;2022-07-29T00:33:54;17.50;99.90
12419;DHT22;6273;52.312;9.178;2022-07-29T00:36:21;17.50;99.90
12419;DHT22;6273;52.312;9.178;2022-07-29T00:38:50;17.40;99.90
12419;DHT22;6273;52.312;9.178;2022-07-29T00:41:17;17.50;99.90
12419;DHT22;6273;52.312;9.178;2022-07-29T00:43:43;17.50;99.90
12419;DHT22;6273;52.312;9.178;2022-07-29T00:46:09;17.50;99.90
12419;DHT22;6273;52.312;9.178;2022-07-29T00:48:35;17.50;99.90
12419;DHT22;6273;52.312;9.178;2022-07-29T00:51:03;17.60;99.90
12419;DHT22;6273;52.312;9.178;2022-07-29T00:53:30;17.60;99.90
12419;DHT22;6273;52.312;9.178;2022-07-29T00:55:57;17.60;99.90
12419;DHT22;6273;52.312;9.178;2022-07-29T00:58:23;17.70;99.90
12419;DHT22;6273;52.312;9.178;2022-07-29T01:00:49;17.60;99.90
12419;DHT22;6273;52.312;9.178;2022-07-29T01:03:15;17.70;99.90
12419;DHT22;6273;52.312;9.178;2022-07-29T01:05:41;17.70;99.90
12419;DHT22;6273;52.312;9.178;2022-07-29T01:08:08;17.60;99.90
12419;DHT22;6273;52.312;9.178;2022-07-29T01:10:37;17.60;99.90
12419;DHT22;6273;52.312;9.178;2022-07-29T01:13:04;17.60;99.90
12419;DHT22;6273;52.312;9.178;2022-07-29T01:15:31;17.60;99.90
12419;DHT22;6273;52.312;9.178;2022-07-29T01:18:06;17.60;99.90
12419;DHT22;6273;52.312;9.178;2022-07-29T01:29:16;17.60;99.90
12419;DHT22;6273;52.312;9.178;2022-07-29T01:31:50;17.60;99.90
12419;DHT22;6273;52.312;9.178;2022-07-29T01:34:22;17.50;99.90
12419;DHT22;6273;52.312;9.178;2022-07-29T01:36:56;17.50;99.90
12419;DHT22;6273;52.312;9.178;2022-07-29T01:39:31;17.50;99.90
12419;DHT22;6273;52.312;9.178;2022-07-29T01:42:12;17.50;99.90
12419;DHT22;6273;52.312;9.178;2022-07-29T01:44:56;17.40;99.90
12419;DHT22;6273;52.312;9.178;2022-07-29T01:47:26;17.40;99.90
12419;DHT22;6273;52.312;9.178;2022-07-29T01:49:58;17.40;99.90
12419;DHT22;6273;52.312;9.178;2022-07-29T01:52:36;17.40;99.90
12419;DHT22;6273;52.312;9.178;2022-07-29T01:55:10;17.30;99.90
12419;DHT22;6273;52.312;9.178;2022-07-29T01:57:38;17.30;99.90
12419;DHT22;6273;52.312;9.178;2022-07-29T02:00:05;17.30;99.90
12419;DHT22;6273;52.312;9.178;2022-07-29T02:02:32;17.30;99.90
12419;DHT22;6273;52.312;9.178;2022-07-29T02:05:00;17.40;99.90
12419;DHT22;6273;52.312;9.178;2022-07-29T02:07:29;17.40;99.90
12419;DHT22;6273;52.312;9.178;2022-07-29T02:09:58;17.40;99.90
12419;DHT22;6273;52.312;9.178;2022-07-29T02:12:26;17.40;99.90
12419;DHT22;6273;52.312;9.178;2022-07-29T02:14:54;17.40;99.90
12419;DHT22;6273;52.312;9.178;2022-07-29T02:17:25;17.40;99.90
12419;DHT22;6273;52.312;9.178;2022-07-29T02:19:53;17.40;99.90
12419;DHT22;6273;52.312;9.178;2022-07-29T02:22:22;17.40;99.90
12419;DHT22;6273;52.312;9.178;2022-07-29T02:24:49;17.40;99.90
12419;DHT22;6273;52.312;9.178;2022-07-29T02:27:17;17.40;99.90
12419;DHT22;6273;52.312;9.178;2022-07-29T02:29:46;17.50;99.90
12419;DHT22;6273;52.312;9.178;2022-07-29T02:32:14;17.40;99.90
12419;DHT22;6273;52.312;9.178;2022-07-29T02:34:42;17.50;99.90
12419;DHT22;6273;52.312;9.178;2022-07-29T02:37:10;17.40;99.90
12419;DHT22;6273;52.312;9.178;2022-07-29T02:39:37;17.50;99.90
12419;DHT22;6273;52.312;9.178;2022-07-29T02:42:07;17.50;99.90
12419;DHT22;6273;52.312;9.178;2022-07-29T02:44:34;17.50;99.90
12419;DHT22;6273;52.312;9.178;2022-07-29T02:47:10;17.50;99.90
12419;DHT22;6273;52.312;9.178;2022-07-29T02:52:27;17.60;99.90
12419;DHT22;6273;52.312;9.178;2022-07-29T02:57:47;17.60;99.90
12419;DHT22;6273;52.312;9.178;2022-07-29T03:00:16;17.60;99.90
12419;DHT22;6273;52.312;9.178;2022-07-29T03:02:47;17.60;99.90
12419;DHT22;6273;52.312;9.178;2022-07-29T03:05:18;17.60;99.90
12419;DHT22;6273;52.312;9.178;2022-07-29T03:07:47;17.60;99.90
12419;DHT22;6273;52.312;9.178;2022-07-29T03:10:13;17.50;99.90
12419;DHT22;6273;52.312;9.178;2022-07-29T03:12:40;17.50;99.90
12419;DHT22;6273;52.312;9.178;2022-07-29T03:15:07;17.50;99.90
12419;DHT22;6273;52.312;9.178;2022-07-29T03:17:34;17.40;99.90
12419;DHT22;6273;52.312;9.178;2022-07-29T03:19:59;17.40;99.90
12419;DHT22;6273;52.312;9.178;2022-07-29T03:22:26;17.40;99.90
12419;DHT22;6273;52.312;9.178;2022-07-29T03:24:52;17.30;99.90
12419;DHT22;6273;52.312;9.178;2022-07-29T03:27:17;17.30;99.90
12419;DHT22;6273;52.312;9.178;2022-07-29T03:29:43;17.30;99.90
12419;DHT22;6273;52.312;9.178;2022-07-29T03:32:09;17.30;99.90
12419;DHT22;6273;52.312;9.178;2022-07-29T03:34:36;17.30;99.90
12419;DHT22;6273;52.312;9.178;2022-07-29T03:37:03;17.30;99.90
12419;DHT22;6273;52.312;9.178;2022-07-29T03:39:33;17.30;99.90
12419;DHT22;6273;52.312;9.178;2022-07-29T03:42:01;17.40;99.90
12419;DHT22;6273;52.312;9.178;2022-07-29T03:44:27;17.40;99.90
12419;DHT22;6273;52.312;9.178;2022-07-29T03:46:55;17.50;99.90
12419;DHT22;6273;52.312;9.178;2022-07-29T03:49:23;17.60;99.90
12419;DHT22;6273;52.312;9.178;2022-07-29T03:51:50;17.60;99.90
12419;DHT22;6273;52.312;9.178;2022-07-29T03:54:15;17.60;99.90
12419;DHT22;6273;52.312;9.178;2022-07-29T03:56:43;17.60;99.90
12419;DHT22;6273;52.312;9.178;2022-07-29T03:59:15;17.70;99.90
12419;DHT22;6273;52.312;9.178;2022-07-29T04:01:41;17.80;99.90
12419;DHT22;6273;52.312;9.178;2022-07-29T04:04:07;17.70;99.90
12419;DHT22;6273;52.312;9.178;2022-07-29T04:06:43;17.80;99.90
12419;DHT22;6273;52.312;9.178;2022-07-29T04:09:10;17.80;99.90
12419;DHT22;6273;52.312;9.178;2022-07-29T04:11:38;17.90;99.90
12419;DHT22;6273;52.312;9.178;2022-07-29T04:14:04;17.90;99.90
12419;DHT22;6273;52.312;9.178;2022-07-29T04:16:29;17.90;99.90
12419;DHT22;6273;52.312;9.178;2022-07-29T04:18:55;17.90;99.90
12419;DHT22;6273;52.312;9.178;2022-07-29T04:21:21;17.90;99.90
12419;DHT22;6273;52.312;9.178;2022-07-29T04:23:46;17.90;99.90
12419;DHT22;6273;52.312;9.178;2022-07-29T04:26:18;17.90;99.90
12419;DHT22;6273;52.312;9.178;2022-07-29T04:28:45;17.90;99.90
12419;DHT22;6273;52.312;9.178;2022-07-29T04:31:11;17.90;99.90
12419;DHT22;6273;52.312;9.178;2022-07-29T04:33:38;18.00;99.90
12419;DHT22;6273;52.312;9.178;2022-07-29T04:36:04;18.00;99.90
12419;DHT22;6273;52.312;9.178;2022-07-29T04:38:30;18.00;99.90
12419;DHT22;6273;52.312;9.178;2022-07-29T04:40:55;17.90;99.90
12419;DHT22;6273;52.312;9.178;2022-07-29T04:43:21;17.90;99.90
12419;DHT22;6273;52.312;9.178;2022-07-29T04:45:47;17.90;99.90
12419;DHT22;6273;52.312;9.178;2022-07-29T04:48:12;17.80;99.90
12419;DHT22;6273;52.312;9.178;2022-07-29T04:50:38;17.80;99.90
12419;DHT22;6273;52.312;9.178;2022-07-29T04:53:05;17.80;99.90
12419;DHT22;6273;52.312;9.178;2022-07-29T04:55:30;17.80;99.90
12419;DHT22;6273;52.312;9.178;2022-07-29T04:57:56;17.80;99.90
12419;DHT22;6273;52.312;9.178;2022-07-29T05:00:22;17.90;99.90
12419;DHT22;6273;52.312;9.178;2022-07-29T05:02:49;17.80;99.90
12419;DHT22;6273;52.312;9.178;2022-07-29T05:05:14;17.60;99.90
12419;DHT22;6273;52.312;9.178;2022-07-29T05:07:40;17.60;99.90
12419;DHT22;6273;52.312;9.178;2022-07-29T05:10:07;17.50;99.90
12419;DHT22;6273;52.312;9.178;2022-07-29T05:12:32;17.50;99.90
12419;DHT22;6273;52.312;9.178;2022-07-29T05:14:59;17.40;99.90
12419;DHT22;6273;52.312;9.178;2022-07-29T05:17:24;17.40;99.90
12419;DHT22;6273;52.312;9.178;2022-07-29T05:19:50;17.40;99.90
12419;DHT22;6273;52.312;9.178;2022-07-29T05:22:18;17.30;99.90
12419;DHT22;6273;52.312;9.178;2022-07-29T05:24:43;17.20;99.90
12419;DHT22;6273;52.312;9.178;2022-07-29T05:27:09;17.10;99.90
12419;DHT22;6273;52.312;9.178;2022-07-29T05:29:35;17.10;99.90
12419;DHT22;6273;52.312;9.178;2022-07-29T05:32:01;17.10;99.90
12419;DHT22;6273;52.312;9.178;2022-07-29T05:34:26;17.30;99.90
12419;DHT22;6273;52.312;9.178;2022-07-29T05:36:52;17.30;99.90
12419;DHT22;6273;52.312;9.178;2022-07-29T05:39:18;17.40;99.90
12419;DHT22;6273;52.312;9.178;2022-07-29T05:41:43;17.50;99.90
12419;DHT22;6273;52.312;9.178;2022-07-29T05:44:09;17.60;99.90
12419;DHT22;6273;52.312;9.178;2022-07-29T05:46:35;17.80;99.90
12419;DHT22;6273;52.312;9.178;2022-07-29T05:49:00;18.00;99.90
12419;DHT22;6273;52.312;9.178;2022-07-29T05:51:28;18.30;99.90
12419;DHT22;6273;52.312;9.178;2022-07-29T05:53:53;18.60;99.90
12419;DHT22;6273;52.312;9.178;2022-07-29T05:56:19;18.60;99.90
12419;DHT22;6273;52.312;9.178;2022-07-29T05:58:44;18.70;99.90
12419;DHT22;6273;52.312;9.178;2022-07-29T06:01:10;18.70;99.90
12419;DHT22;6273;52.312;9.178;2022-07-29T06:03:35;18.70;99.90
12419;DHT22;6273;52.312;9.178;2022-07-29T06:06:03;18.60;99.90
12419;DHT22;6273;52.312;9.178;2022-07-29T06:08:29;18.50;99.90
12419;DHT22;6273;52.312;9.178;2022-07-29T06:10:54;18.50;99.90
12419;DHT22;6273;52.312;9.178;2022-07-29T06:13:20;18.50;99.90
12419;DHT22;6273;52.312;9.178;2022-07-29T06:15:45;18.40;99.90
12419;DHT22;6273;52.312;9.178;2022-07-29T06:18:12;18.40;99.90
12419;DHT22;6273;52.312;9.178;2022-07-29T06:20:38;18.40;99.90
12419;DHT22;6273;52.312;9.178;2022-07-29T06:23:04;18.50;99.90
12419;DHT22;6273;52.312;9.178;2022-07-29T06:25:30;18.40;99.90
12419;DHT22;6273;52.312;9.178;2022-07-29T06:27:57;18.40;99.90
12419;DHT22;6273;52.312;9.178;2022-07-29T06:30:23;18.40;99.90
12419;DHT22;6273;52.312;9.178;2022-07-29T06:32:49;18.40;99.90
12419;DHT22;6273;52.312;9.178;2022-07-29T06:35:14;18.30;99.90
12419;DHT22;6273;52.312;9.178;2022-07-29T06:37:40;18.40;99.90
12419;DHT22;6273;52.312;9.178;2022-07-29T06:40:06;18.40;99.90
12419;DHT22;6273;52.312;9.178;2022-07-29T06:42:50;18.30;99.90
12419;DHT22;6273;52.312;9.178;2022-07-29T06:45:16;18.10;99.90
12419;DHT22;6273;52.312;9.178;2022-07-29T06:47:42;18.10;99.90
12419;DHT22;6273;52.312;9.178;2022-07-29T06:50:07;18.10;99.90
12419;DHT22;6273;52.312;9.178;2022-07-29T06:52:37;18.10;99.90
12419;DHT22;6273;52.312;9.178;2022-07-29T06:55:03;18.20;99.90
12419;DHT22;6273;52.312;9.178;2022-07-29T06:57:29;18.20;99.90
12419;DHT22;6273;52.312;9.178;2022-07-29T06:59:56;18.30;99.90
12419;DHT22;6273;52.312;9.178;2022-07-29T07:02:22;18.30;99.90
12419;DHT22;6273;52.312;9.178;2022-07-29T07:04:48;18.40;99.90
12419;DHT22;6273;52.312;9.178;2022-07-29T07:07:13;18.50;99.90
12419;DHT22;6273;52.312;9.178;2022-07-29T07:09:39;18.50;99.90
12419;DHT22;6273;52.312;9.178;2022-07-29T07:12:05;18.60;99.90
12419;DHT22;6273;52.312;9.178;2022-07-29T07:14:31;18.60;99.90
12419;DHT22;6273;52.312;9.178;2022-07-29T07:16:57;18.80;99.90
12419;DHT22;6273;52.312;9.178;2022-07-29T07:19:22;18.70;99.90
12419;DHT22;6273;52.312;9.178;2022-07-29T07:21:48;18.80;99.90
12419;DHT22;6273;52.312;9.178;2022-07-29T07:24:14;18.80;99.90
12419;DHT22;6273;52.312;9.178;2022-07-29T07:26:39;18.80;99.90
12419;DHT22;6273;52.312;9.178;2022-07-29T07:29:05;18.90;99.90
12419;DHT22;6273;52.312;9.178;2022-07-29T07:31:31;18.80;99.90
12419;DHT22;6273;52.312;9.178;2022-07-29T07:33:57;18.80;99.90
12419;DHT22;6273;52.312;9.178;2022-07-29T07:36:23;18.80;99.90
12419;DHT22;6273;52.312;9.178;2022-07-29T07:38:49;18.80;99.90
12419;DHT22;6273;52.312;9.178;2022-07-29T07:41:14;18.90;99.90
12419;DHT22;6273;52.312;9.178;2022-07-29T07:43:40;19.00;99.90
12419;DHT22;6273;52.312;9.178;2022-07-29T07:46:06;19.00;99.90
12419;DHT22;6273;52.312;9.178;2022-07-29T07:48:32;19.10;99.90
12419;DHT22;6273;52.312;9.178;2022-07-29T07:51:00;19.10;99.90
12419;DHT22;6273;52.312;9.178;2022-07-29T07:53:26;19.20;99.90
12419;DHT22;6273;52.312;9.178;2022-07-29T07:55:51;19.30;99.90
12419;DHT22;6273;52.312;9.178;2022-07-29T07:58:17;19.40;99.90
12419;DHT22;6273;52.312;9.178;2022-07-29T08:00:42;19.50;99.90
12419;DHT22;6273;52.312;9.178;2022-07-29T08:03:08;19.60;99.90
12419;DHT22;6273;52.312;9.178;2022-07-29T08:05:34;19.80;99.90
12419;DHT22;6273;52.312;9.178;2022-07-29T08:08:01;20.00;99.90
12419;DHT22;6273;52.312;9.178;2022-07-29T08:10:27;20.20;99.90
12419;DHT22;6273;52.312;9.178;2022-07-29T08:13:11;20.40;99.90
12419;DHT22;6273;52.312;9.178;2022-07-29T08:15:39;21.00;99.90
12419;DHT22;6273;52.312;9.178;2022-07-29T08:18:05;21.50;99.90
12419;DHT22;6273;52.312;9.178;2022-07-29T08:20:30;21.70;99.90
12419;DHT22;6273;52.312;9.178;2022-07-29T08:22:59;21.80;99.90
12419;DHT22;6273;52.312;9.178;2022-07-29T08:25:24;21.80;99.90
12419;DHT22;6273;52.312;9.178;2022-07-29T08:27:50;21.70;99.90
12419;DHT22;6273;52.312;9.178;2022-07-29T08:30:15;21.60;99.90
12419;DHT22;6273;52.312;9.178;2022-07-29T08:32:41;21.60;99.90
12419;DHT22;6273;52.312;9.178;2022-07-29T08:35:07;21.70;99.90
12419;DHT22;6273;52.312;9.178;2022-07-29T08:37:33;21.70;99.90
12419;DHT22;6273;52.312;9.178;2022-07-29T08:39:58;21.70;99.90
12419;DHT22;6273;52.312;9.178;2022-07-29T08:42:24;21.80;99.90
12419;DHT22;6273;52.312;9.178;2022-07-29T08:44:50;21.80;99.90
12419;DHT22;6273;52.312;9.178;2022-07-29T08:47:16;21.90;99.90
12419;DHT22;6273;52.312;9.178;2022-07-29T08:49:42;22.20;99.90
12419;DHT22;6273;52.312;9.178;2022-07-29T08:52:10;22.50;99.90
12419;DHT22;6273;52.312;9.178;2022-07-29T08:54:38;22.70;99.90
12419;DHT22;6273;52.312;9.178;2022-07-29T08:57:04;22.80;99.90
12419;DHT22;6273;52.312;9.178;2022-07-29T08:59:30;23.10;99.90
12419;DHT22;6273;52.312;9.178;2022-07-29T09:01:57;23.10;99.90
12419;DHT22;6273;52.312;9.178;2022-07-29T09:04:29;23.20;99.90
12419;DHT22;6273;52.312;9.178;2022-07-29T09:06:57;23.00;99.90
12419;DHT22;6273;52.312;9.178;2022-07-29T09:09:25;23.00;99.90
12419;DHT22;6273;52.312;9.178;2022-07-29T09:11:51;23.10;99.90
12419;DHT22;6273;52.312;9.178;2022-07-29T09:14:18;23.20;99.90
12419;DHT22;6273;52.312;9.178;2022-07-29T09:21:50;23.40;99.90
12419;DHT22;6273;52.312;9.178;2022-07-29T09:24:47;23.60;99.90
12419;DHT22;6273;52.312;9.178;2022-07-29T09:27:21;24.10;99.90
12419;DHT22;6273;52.312;9.178;2022-07-29T09:30:03;24.50;99.90
12419;DHT22;6273;52.312;9.178;2022-07-29T09:32:30;24.80;99.90
12419;DHT22;6273;52.312;9.178;2022-07-29T09:35:21;24.90;99.90
12419;DHT22;6273;52.312;9.178;2022-07-29T09:37:48;24.40;99.90
12419;DHT22;6273;52.312;9.178;2022-07-29T09:42:48;24.00;99.90
12419;DHT22;6273;52.312;9.178;2022-07-29T09:45:32;24.10;99.90
12419;DHT22;6273;52.312;9.178;2022-07-29T09:47:59;23.60;99.90
12419;DHT22;6273;52.312;9.178;2022-07-29T09:50:39;23.40;99.90
12419;DHT22;6273;52.312;9.178;2022-07-29T09:53:06;23.80;99.90
12419;DHT22;6273;52.312;9.178;2022-07-29T09:55:31;24.20;99.90
12419;DHT22;6273;52.312;9.178;2022-07-29T09:58:16;24.80;99.90
12419;DHT22;6273;52.312;9.178;2022-07-29T10:00:42;25.40;99.90
12419;DHT22;6273;52.312;9.178;2022-07-29T10:03:09;26.10;99.90
12419;DHT22;6273;52.312;9.178;2022-07-29T10:05:34;26.40;99.90
12419;DHT22;6273;52.312;9.178;2022-07-29T10:08:00;26.10;99.90
12419;DHT22;6273;52.312;9.178;2022-07-29T10:10:29;25.80;99.90
12419;DHT22;6273;52.312;9.178;2022-07-29T10:13:00;26.20;99.90
12419;DHT22;6273;52.312;9.178;2022-07-29T10:15:31;26.20;99.90
12419;DHT22;6273;52.312;9.178;2022-07-29T10:17:58;26.20;99.90
12419;DHT22;6273;52.312;9.178;2022-07-29T10:20:26;26.20;99.90
12419;DHT22;6273;52.312;9.178;2022-07-29T10:22:52;26.00;99.90
12419;DHT22;6273;52.312;9.178;2022-07-29T10:25:19;26.30;99.90
12419;DHT22;6273;52.312;9.178;2022-07-29T10:27:46;26.70;99.90
12419;DHT22;6273;52.312;9.178;2022-07-29T10:30:13;26.80;99.90
12419;DHT22;6273;52.312;9.178;2022-07-29T10:38:10;25.20;99.80
12419;DHT22;6273;52.312;9.178;2022-07-29T10:40:52;24.20;99.90
12419;DHT22;6273;52.312;9.178;2022-07-29T10:43:42;23.90;99.90
12419;DHT22;6273;52.312;9.178;2022-07-29T10:46:10;24.30;99.90
12419;DHT22;6273;52.312;9.178;2022-07-29T10:49:06;24.10;99.90
12419;DHT22;6273;52.312;9.178;2022-07-29T10:51:52;23.60;99.90
12419;DHT22;6273;52.312;9.178;2022-07-29T10:54:19;23.30;99.90
12419;DHT22;6273;52.312;9.178;2022-07-29T10:59:51;23.10;99.90
12419;DHT22;6273;52.312;9.178;2022-07-29T11:05:09;24.20;99.90
12419;DHT22;6273;52.312;9.178;2022-07-29T11:07:37;24.30;99.90
12419;DHT22;6273;52.312;9.178;2022-07-29T11:15:07;23.30;99.90
12419;DHT22;6273;52.312;9.178;2022-07-29T11:20:51;22.80;99.90
12419;DHT22;6273;52.312;9.178;2022-07-29T11:23:29;22.70;99.90
12419;DHT22;6273;52.312;9.178;2022-07-29T11:26:16;22.70;99.90
12419;DHT22;6273;52.312;9.178;2022-07-29T11:31:36;22.90;99.90
12419;DHT22;6273;52.312;9.178;2022-07-29T11:34:35;23.00;99.90
12419;DHT22;6273;52.312;9.178;2022-07-29T11:39:40;23.00;99.90
12419;DHT22;6273;52.312;9.178;2022-07-29T11:45:07;22.90;99.90
12419;DHT22;6273;52.312;9.178;2022-07-29T11:47:37;22.80;99.90
12419;DHT22;6273;52.312;9.178;2022-07-29T11:50:06;22.60;99.90
12419;DHT22;6273;52.312;9.178;2022-07-29T11:52:34;22.60;99.90
12419;DHT22;6273;52.312;9.178;2022-07-29T11:55:04;22.80;99.90
12419;DHT22;6273;52.312;9.178;2022-07-29T11:57:30;23.20;99.90
12419;DHT22;6273;52.312;9.178;2022-07-29T11:59:57;23.60;99.90
12419;DHT22;6273;52.312;9.178;2022-07-29T12:02:23;23.70;99.90
12419;DHT22;6273;52.312;9.178;2022-07-29T12:04:54;23.40;99.90
12419;DHT22;6273;52.312;9.178;2022-07-29T12:07:32;23.20;99.90
12419;DHT22;6273;52.312;9.178;2022-07-29T12:09:58;23.00;99.90
12419;DHT22;6273;52.312;9.178;2022-07-29T12:12:25;23.00;99.90
12419;DHT22;6273;52.312;9.178;2022-07-29T15:58:33;25.60;99.90
12419;DHT22;6273;52.312;9.178;2022-07-29T16:04:53;25.50;99.90
12419;DHT22;6273;52.312;9.178;2022-07-29T16:07:46;25.40;99.90
12419;DHT22;6273;52.312;9.178;2022-07-29T16:17:06;25.30;99.90
12419;DHT22;6273;52.312;9.178;2022-07-29T16:19:47;25.30;99.90
12419;DHT22;6273;52.312;9.178;2022-07-29T16:22:18;25.20;99.90
12419;DHT22;6273;52.312;9.178;2022-07-29T16:24:49;25.10;99.90
12419;DHT22;6273;52.312;9.178;2022-07-29T16:27:15;25.00;99.90
12419;DHT22;6273;52.312;9.178;2022-07-29T16:29:40;24.90;99.90
12419;DHT22;6273;52.312;9.178;2022-07-29T16:32:06;24.80;99.90
12419;DHT22;6273;52.312;9.178;2022-07-29T16:34:32;24.80;99.90
12419;DHT22;6273;52.312;9.178;2022-07-29T16:36:57;24.70;99.90
12419;DHT22;6273;52.312;9.178;2022-07-29T16:39:23;24.70;99.90
12419;DHT22;6273;52.312;9.178;2022-07-29T16:41:50;24.70;99.90
12419;DHT22;6273;52.312;9.178;2022-07-29T16:44:15;24.70;99.90
12419;DHT22;6273;52.312;9.178;2022-07-29T16:46:44;24.60;99.90
12419;DHT22;6273;52.312;9.178;2022-07-29T16:49:10;24.60;99.90
12419;DHT22;6273;52.312;9.178;2022-07-29T16:51:36;24.50;99.90
12419;DHT22;6273;52.312;9.178;2022-07-29T16:54:06;24.50;99.90
12419;DHT22;6273;52.312;9.178;2022-07-29T16:56:33;24.50;99.90
12419;DHT22;6273;52.312;9.178;2022-07-29T16:58:59;24.40;99.90
12419;DHT22;6273;52.312;9.178;2022-07-29T17:01:24;24.40;99.90
12419;DHT22;6273;52.312;9.178;2022-07-29T17:03:50;24.40;99.90
12419;DHT22;6273;52.312;9.178;2022-07-29T17:06:31;24.30;99.90
12419;DHT22;6273;52.312;9.178;2022-07-29T17:09:00;24.30;99.90
12419;DHT22;6273;52.312;9.178;2022-07-29T17:11:26;24.20;99.90
12419;DHT22;6273;52.312;9.178;2022-07-29T21:41:45;17.60;99.90
12419;DHT22;6273;52.312;9.178;2022-07-29T21:44:11;17.60;99.90
12419;DHT22;6273;52.312;9.178;2022-07-29T21:46:37;17.50;99.90
12419;DHT22;6273;52.312;9.178;2022-07-29T21:49:02;17.60;99.90
12419;DHT22;6273;52.312;9.178;2022-07-29T21:51:28;17.60;99.90
12419;DHT22;6273;52.312;9.178;2022-07-29T21:53:53;17.60;99.90
12419;DHT22;6273;52.312;9.178;2022-07-29T21:56:19;17.60;99.90
12419;DHT22;6273;52.312;9.178;2022-07-29T21:58:45;17.60;99.90
12419;DHT22;6273;52.312;9.178;2022-07-29T22:01:11;17.60;99.90
12419;DHT22;6273;52.312;9.178;2022-07-29T22:03:36;17.50;99.90
12419;DHT22;6273;52.312;9.178;2022-07-29T22:06:02;17.50;99.90
12419;DHT22;6273;52.312;9.178;2022-07-29T22:08:28;17.60;99.90
12419;DHT22;6273;52.312;9.178;2022-07-29T22:10:53;17.50;99.90
12419;DHT22;6273;52.312;9.178;2022-07-29T22:13:19;17.40;99.90
12419;DHT22;6273;52.312;9.178;2022-07-29T22:15:46;17.40;99.90
12419;DHT22;6273;52.312;9.178;2022-07-29T22:18:11;17.30;99.90
12419;DHT22;6273;52.312;9.178;2022-07-29T22:20:37;17.30;99.90
12419;DHT22;6273;52.312;9.178;2022-07-29T22:23:02;17.30;99.90
12419;DHT22;6273;52.312;9.178;2022-07-29T22:25:28;17.30;99.90
12419;DHT22;6273;52.312;9.178;2022-07-29T22:27:54;17.30;99.90
12419;DHT22;6273;52.312;9.178;2022-07-29T22:30:19;17.40;99.90
12419;DHT22;6273;52.312;9.178;2022-07-29T22:32:45;17.40;99.90
12419;DHT22;6273;52.312;9.178;2022-07-29T22:35:12;17.30;99.90
12419;DHT22;6273;52.312;9.178;2022-07-29T22:37:38;17.40;99.90
12419;DHT22;6273;52.312;9.178;2022-07-29T22:40:04;17.30;99.90
12419;DHT22;6273;52.312;9.178;2022-07-29T22:42:30;17.50;99.90
12419;DHT22;6273;52.312;9.178;2022-07-29T22:44:55;17.30;99.90
12419;DHT22;6273;52.312;9.178;2022-07-29T22:47:21;17.30;99.90
12419;DHT22;6273;52.312;9.178;2022-07-29T22:49:46;17.40;99.90
12419;DHT22;6273;52.312;9.178;2022-07-29T22:52:12;17.30;99.90
12419;DHT22;6273;52.312;9.178;2022-07-29T22:54:38;17.30;99.90
12419;DHT22;6273;52.312;9.178;2022-07-29T22:57:04;17.30;99.90
12419;DHT22;6273;52.312;9.178;2022-07-29T22:59:30;17.30;99.90
12419;DHT22;6273;52.312;9.178;2022-07-29T23:01:55;17.30;99.90
12419;DHT22;6273;52.312;9.178;2022-07-29T23:04:21;17.40;99.90
12419;DHT22;6273;52.312;9.178;2022-07-29T23:06:49;17.30;99.90
12419;DHT22;6273;52.312;9.178;2022-07-29T23:09:14;17.40;99.90
12419;DHT22;6273;52.312;9.178;2022-07-29T23:11:40;17.40;99.90
12419;DHT22;6273;52.312;9.178;2022-07-29T23:14:06;17.40;99.90
12419;DHT22;6273;52.312;9.178;2022-07-29T23:16:31;17.30;99.90
12419;DHT22;6273;52.312;9.178;2022-07-29T23:18:57;17.40;99.90
12419;DHT22;6273;52.312;9.178;2022-07-29T23:21:23;17.40;99.90
12419;DHT22;6273;52.312;9.178;2022-07-29T23:23:48;17.40;99.90
12419;DHT22;6273;52.312;9.178;2022-07-29T23:26:14;17.40;99.90
12419;DHT22;6273;52.312;9.178;2022-07-29T23:28:42;17.30;99.90
12419;DHT22;6273;52.312;9.178;2022-07-29T23:31:08;17.40;99.90
12419;DHT22;6273;52.312;9.178;2022-07-29T23:33:34;17.30;99.90
12419;DHT22;6273;52.312;9.178;2022-07-29T23:35:59;17.30;99.90
12419;DHT22;6273;52.312;9.178;2022-07-29T23:38:25;17.40;99.90
12419;DHT22;6273;52.312;9.178;2022-07-29T23:40:50;17.40;99.90
12419;DHT22;6273;52.312;9.178;2022-07-29T23:43:16;17.40;99.90
12419;DHT22;6273;52.312;9.178;2022-07-29T23:45:42;17.40;99.90
12419;DHT22;6273;52.312;9.178;2022-07-29T23:48:07;17.30;99.90
12419;DHT22;6273;52.312;9.178;2022-07-29T23:50:33;17.30;99.90
12419;DHT22;6273;52.312;9.178;2022-07-29T23:52:59;17.30;99.90
12419;DHT22;6273;52.312;9.178;2022-07-29T23:55:24;17.30;99.90
12419;DHT22;6273;52.312;9.178;2022-07-29T23:57:50;17.30;99.90
